Time;durP1;ratioP1;P1;durP2;ratioP2;P2;SDS_P1;SDS_P2;PMS_P1;PMS_P2;Temp;Humidity;BMP_temperature;BMP_pressure;BME280_temperature;BME280_humidity;BME280_pressure;Samples;Min_cycle;Max_cycle;Signal;HPM_P1;HPM_P2
2021/04/16 00:00:07;;;;;;;13.10;11.32;;;2.30;99.90;;;;;;5014585;28;20062;-82
2021/04/16 00:02:34;;;;;;;13.00;11.45;;;2.30;99.90;;;;;;5014983;28;20402;-82
2021/04/16 00:05:00;;;;;;;15.60;12.30;;;2.30;99.90;;;;;;5013931;28;20499;-82
2021/04/16 00:07:27;;;;;;;14.43;11.30;;;2.40;99.90;;;;;;5013744;28;20157;-82
2021/04/16 00:09:53;;;;;;;12.95;10.80;;;2.40;99.90;;;;;;5013966;28;20447;-82
2021/04/16 00:12:20;;;;;;;17.70;11.77;;;2.40;99.90;;;;;;5014355;28;20068;-82
2021/04/16 00:14:46;;;;;;;12.18;9.82;;;2.40;99.90;;;;;;5014894;28;20140;-82
2021/04/16 00:17:12;;;;;;;12.70;9.48;;;2.40;99.90;;;;;;5014884;28;20081;-83
2021/04/16 00:19:38;;;;;;;11.85;9.15;;;2.30;99.90;;;;;;5014713;28;20457;-82
2021/04/16 00:22:05;;;;;;;15.45;11.40;;;2.30;99.90;;;;;;5013075;28;20478;-83
2021/04/16 00:24:31;;;;;;;10.52;9.43;;;2.30;99.90;;;;;;5013318;28;20061;-83
2021/04/16 00:26:57;;;;;;;10.93;8.93;;;2.30;99.90;;;;;;5014804;28;20049;-82
2021/04/16 00:29:23;;;;;;;8.88;7.80;;;2.20;99.90;;;;;;5014491;28;20490;-82
2021/04/16 00:31:53;;;;;;;8.85;7.82;;;2.30;99.90;;;;;;5013529;28;20054;-82
2021/04/16 00:34:23;;;;;;;7.32;5.88;;;2.20;99.90;;;;;;5014452;28;20053;-83
2021/04/16 00:36:50;;;;;;;10.50;6.72;;;2.20;99.90;;;;;;5013382;28;20056;-82
2021/04/16 00:39:19;;;;;;;7.75;6.35;;;2.10;99.90;;;;;;5014315;28;20073;-82
2021/04/16 00:41:46;;;;;;;6.85;4.68;;;2.20;99.90;;;;;;5012838;28;20059;-83
2021/04/16 00:44:12;;;;;;;5.47;4.97;;;2.10;99.90;;;;;;5013114;28;20137;-82
2021/04/16 00:46:56;;;;;;;3.85;3.55;;;2.10;99.90;;;;;;5014380;28;20501;-82
2021/04/16 00:49:26;;;;;;;5.38;4.88;;;2.00;99.90;;;;;;5014225;28;20100;-83
2021/04/16 00:51:59;;;;;;;3.85;3.00;;;1.90;99.90;;;;;;5014150;28;20050;-82
2021/04/16 00:54:31;;;;;;;3.65;2.72;;;1.90;99.90;;;;;;5013978;28;20128;-83
2021/04/16 00:56:57;;;;;;;3.60;3.30;;;1.80;99.90;;;;;;5014186;28;20141;-83
2021/04/16 00:59:28;;;;;;;3.20;2.58;;;1.90;99.90;;;;;;5013978;28;20052;-83
2021/04/16 01:02:00;;;;;;;2.42;2.22;;;1.90;99.90;;;;;;5014021;28;20049;-82
2021/04/16 01:04:28;;;;;;;2.40;2.20;;;1.80;99.90;;;;;;5012770;28;20085;-83
2021/04/16 01:06:57;;;;;;;2.90;1.83;;;1.80;99.90;;;;;;5013662;28;20495;-83
2021/04/16 01:09:23;;;;;;;1.45;1.45;;;1.70;99.90;;;;;;5013650;28;20088;-83
2021/04/16 01:11:49;;;;;;;4.78;1.65;;;1.70;99.90;;;;;;5014028;28;20133;-82
2021/04/16 01:14:17;;;;;;;4.95;1.85;;;1.70;99.90;;;;;;5013814;28;20434;-83
2021/04/16 01:16:45;;;;;;;2.28;1.90;;;1.60;99.90;;;;;;5014016;28;20100;-83
2021/04/16 01:19:25;;;;;;;1.77;1.67;;;1.60;99.90;;;;;;5013551;28;20056;-82
2021/04/16 01:21:58;;;;;;;1.90;1.65;;;1.60;99.90;;;;;;5013847;28;20054;-82
2021/04/16 01:24:30;;;;;;;3.47;1.77;;;1.50;99.90;;;;;;5013654;28;20048;-82
2021/04/16 01:26:58;;;;;;;1.85;1.60;;;1.60;99.90;;;;;;5012560;28;20050;-82
2021/04/16 01:29:25;;;;;;;1.60;1.58;;;1.50;99.90;;;;;;5013734;28;20136;-82
2021/04/16 01:31:52;;;;;;;2.42;2.22;;;1.50;99.90;;;;;;5013439;28;20050;-82
2021/04/16 01:34:25;;;;;;;2.05;1.83;;;1.40;99.90;;;;;;5011358;28;20054;-82
2021/04/16 01:36:53;;;;;;;2.65;1.63;;;1.30;99.90;;;;;;5013601;28;20077;-82
2021/04/16 01:39:21;;;;;;;2.33;2.10;;;1.20;99.90;;;;;;5012180;28;20046;-82
2021/04/16 01:41:47;;;;;;;2.13;1.92;;;1.30;99.90;;;;;;5013541;28;20050;-82
2021/04/16 01:44:20;;;;;;;2.70;2.15;;;1.20;99.90;;;;;;5011968;28;20049;-82
2021/04/16 01:47:08;;;;;;;2.43;2.17;;;1.10;99.90;;;;;;5013471;28;20132;-82
2021/04/16 01:49:37;;;;;;;3.25;2.00;;;1.10;99.90;;;;;;5013351;28;20475;-82
2021/04/16 01:52:05;;;;;;;4.53;1.98;;;1.20;99.90;;;;;;5013164;28;20060;-82
2021/04/16 01:54:38;;;;;;;4.50;2.10;;;1.20;99.90;;;;;;5012009;28;20092;-82
2021/04/16 01:57:16;;;;;;;3.05;2.10;;;1.20;99.90;;;;;;5013081;28;20388;-82
2021/04/16 01:59:45;;;;;;;4.30;2.30;;;1.20;99.90;;;;;;5013200;28;20142;-82
2021/04/16 02:02:16;;;;;;;4.38;2.03;;;1.20;99.90;;;;;;5012735;28;20148;-82
2021/04/16 02:04:43;;;;;;;2.55;2.30;;;1.10;99.90;;;;;;5013086;28;20438;-81
2021/04/16 02:07:10;;;;;;;6.35;2.40;;;1.00;99.90;;;;;;5012878;28;20129;-82
2021/04/16 02:09:38;;;;;;;4.65;2.50;;;1.00;99.90;;;;;;5013198;28;20053;-82
2021/04/16 02:12:07;;;;;;;4.65;2.75;;;1.00;99.90;;;;;;5012883;28;20050;-83
2021/04/16 02:14:34;;;;;;;2.92;2.38;;;1.00;99.90;;;;;;5013113;28;20050;-82
2021/04/16 02:17:05;;;;;;;2.55;2.45;;;0.90;99.90;;;;;;5012959;28;20133;-82
2021/04/16 02:19:32;;;;;;;3.30;3.05;;;0.90;99.90;;;;;;5012926;28;20056;-82
2021/04/16 02:21:58;;;;;;;3.60;2.80;;;1.00;99.90;;;;;;5013100;28;20136;-82
2021/04/16 02:24:25;;;;;;;4.05;2.92;;;1.00;99.90;;;;;;5013108;28;20060;-82
2021/04/16 02:26:51;;;;;;;3.85;3.55;;;1.00;99.90;;;;;;5012892;28;20128;-82
2021/04/16 02:29:20;;;;;;;4.38;3.50;;;1.00;99.90;;;;;;5011652;28;20093;-83
2021/04/16 02:31:46;;;;;;;4.38;4.00;;;1.00;99.90;;;;;;5011456;28;20496;-82
2021/04/16 02:34:22;;;;;;;4.28;3.72;;;1.00;99.90;;;;;;5011350;28;20080;-82
2021/04/16 02:36:51;;;;;;;3.83;3.58;;;1.00;99.90;;;;;;5011771;28;20451;-82
2021/04/16 02:39:17;;;;;;;3.90;3.58;;;1.00;99.90;;;;;;5012795;28;20045;-82
2021/04/16 02:41:43;;;;;;;3.92;3.67;;;1.00;99.90;;;;;;5011659;28;20131;-82
2021/04/16 02:44:10;;;;;;;4.00;3.65;;;1.00;99.90;;;;;;5011351;28;20477;-82
2021/04/16 02:46:37;;;;;;;7.20;4.00;;;1.10;99.90;;;;;;5014844;28;20046;-82
2021/04/16 02:49:04;;;;;;;6.25;3.90;;;1.00;99.90;;;;;;5016359;28;20045;-82
2021/04/16 02:51:30;;;;;;;6.70;5.13;;;1.10;99.90;;;;;;5015399;28;20076;-82
2021/04/16 02:53:57;;;;;;;5.50;4.68;;;1.10;99.90;;;;;;5016600;28;20124;-82
2021/04/16 02:56:24;;;;;;;9.35;5.40;;;1.10;99.90;;;;;;5015255;28;20494;-82
2021/04/16 02:58:50;;;;;;;7.05;5.28;;;1.00;99.90;;;;;;5016115;28;20465;-83
2021/04/16 03:01:17;;;;;;;5.30;4.90;;;1.00;99.90;;;;;;5014796;28;20417;-82
2021/04/16 03:03:44;;;;;;;7.90;5.43;;;1.00;99.90;;;;;;5016354;28;20449;-82
2021/04/16 03:06:11;;;;;;;7.15;5.90;;;1.10;99.90;;;;;;5016143;28;20057;-82
2021/04/16 03:08:38;;;;;;;5.72;5.22;;;1.00;99.90;;;;;;5016146;28;20049;-82
2021/04/16 03:11:07;;;;;;;5.20;4.80;;;1.10;99.90;;;;;;5016093;28;20060;-82
2021/04/16 03:13:33;;;;;;;5.35;4.85;;;1.00;99.90;;;;;;5014858;28;20112;-82
2021/04/16 03:16:00;;;;;;;8.77;4.90;;;1.10;99.90;;;;;;5014784;28;20057;-81
2021/04/16 03:18:27;;;;;;;6.53;4.40;;;1.10;99.90;;;;;;5015872;28;20089;-82
2021/04/16 03:20:54;;;;;;;4.68;4.30;;;1.00;99.90;;;;;;5015930;28;20054;-82
2021/04/16 03:23:20;;;;;;;8.15;4.68;;;1.00;99.90;;;;;;5014653;28;20104;-83
2021/04/16 03:25:47;;;;;;;5.20;4.80;;;1.10;99.90;;;;;;5014855;28;20077;-83
2021/04/16 03:28:13;;;;;;;5.03;4.53;;;1.00;99.90;;;;;;5015613;28;20092;-83
2021/04/16 03:30:39;;;;;;;5.13;4.60;;;1.10;99.90;;;;;;5014619;28;20126;-83
2021/04/16 03:33:06;;;;;;;7.13;5.20;;;1.10;99.90;;;;;;5015735;28;20064;-83
2021/04/16 03:35:32;;;;;;;5.43;4.97;;;1.10;99.90;;;;;;5015909;28;20050;-83
2021/04/16 03:37:58;;;;;;;5.43;4.70;;;1.10;99.90;;;;;;5014261;28;20502;-83
2021/04/16 03:40:29;;;;;;;5.93;5.03;;;1.20;99.90;;;;;;5015366;28;20414;-83
2021/04/16 03:42:55;;;;;;;6.10;4.57;;;1.20;99.90;;;;;;5015426;28;20483;-83
2021/04/16 03:45:23;;;;;;;5.70;5.03;;;1.10;99.90;;;;;;5014594;28;20085;-83
2021/04/16 03:47:50;;;;;;;7.63;5.57;;;1.00;99.90;;;;;;5015410;28;20115;-83
2021/04/16 03:50:21;;;;;;;6.75;5.10;;;1.00;99.90;;;;;;5015424;28;20074;-83
2021/04/16 03:52:48;;;;;;;6.25;5.65;;;1.10;99.90;;;;;;5015436;28;20141;-83
2021/04/16 03:55:22;;;;;;;6.20;4.32;;;1.00;99.90;;;;;;5015224;28;20049;-83
2021/04/16 03:57:48;;;;;;;5.15;4.60;;;1.00;99.90;;;;;;5013060;28;20132;-83
2021/04/16 04:00:18;;;;;;;6.55;5.45;;;0.90;99.90;;;;;;5013656;28;20085;-82
2021/04/16 04:02:45;;;;;;;6.63;5.97;;;0.90;99.90;;;;;;5014127;28;20053;-83
2021/04/16 04:05:11;;;;;;;6.03;5.53;;;1.00;99.90;;;;;;5014038;28;20053;-83
2021/04/16 04:07:38;;;;;;;6.40;4.80;;;0.90;99.90;;;;;;5014650;28;20046;-83
2021/04/16 04:10:07;;;;;;;6.15;5.63;;;0.90;99.90;;;;;;5013829;28;20054;-83
2021/04/16 04:12:33;;;;;;;6.13;5.50;;;0.90;99.90;;;;;;5013715;28;20100;-83
2021/04/16 04:15:00;;;;;;;6.47;5.88;;;0.80;99.90;;;;;;5014101;28;20050;-83
2021/04/16 04:17:35;;;;;;;6.45;5.93;;;0.90;99.90;;;;;;5013849;28;20115;-83
2021/04/16 04:20:04;;;;;;;7.20;5.90;;;0.90;99.90;;;;;;5013814;28;20434;-84
2021/04/16 04:22:30;;;;;;;6.03;5.43;;;1.00;99.90;;;;;;5014644;28;20141;-83
2021/04/16 04:24:56;;;;;;;8.27;6.35;;;1.00;99.90;;;;;;5014751;28;20446;-83
2021/04/16 04:27:23;;;;;;;6.40;5.80;;;1.00;99.90;;;;;;5013339;28;20132;-83
2021/04/16 04:29:49;;;;;;;9.07;6.82;;;0.90;99.90;;;;;;5013582;28;20096;-83
2021/04/16 04:32:15;;;;;;;8.80;6.65;;;0.90;99.90;;;;;;5014568;28;20042;-83
2021/04/16 04:34:42;;;;;;;7.43;6.60;;;0.90;99.90;;;;;;5014679;28;20100;-83
2021/04/16 04:37:09;;;;;;;8.38;7.53;;;0.90;99.90;;;;;;5013110;28;20128;-83
2021/04/16 04:39:40;;;;;;;7.47;6.78;;;0.90;99.90;;;;;;5014522;28;20056;-83
2021/04/16 04:42:07;;;;;;;8.00;6.47;;;0.90;99.90;;;;;;5014232;28;20494;-83
2021/04/16 04:44:33;;;;;;;7.28;6.55;;;0.90;99.90;;;;;;5014263;28;20564;-83
2021/04/16 04:47:00;;;;;;;7.93;6.60;;;0.90;99.90;;;;;;5013314;28;20545;-83
2021/04/16 04:49:26;;;;;;;7.25;6.50;;;0.90;99.90;;;;;;5012877;28;20054;-83
2021/04/16 04:52:16;;;;;;;8.10;7.10;;;0.90;99.90;;;;;;5012990;28;20512;-83
2021/04/16 04:54:48;;;;;;;9.02;7.22;;;0.90;99.90;;;;;;5014420;28;20042;-84
2021/04/16 04:57:16;;;;;;;7.45;6.70;;;0.90;99.90;;;;;;5014142;28;20406;-82
2021/04/16 04:59:44;;;;;;;7.45;6.65;;;0.90;99.90;;;;;;5012800;28;20046;-83
2021/04/16 05:02:10;;;;;;;6.82;5.88;;;0.90;99.90;;;;;;5012625;28;20089;-83
2021/04/16 05:04:38;;;;;;;5.82;5.28;;;1.00;99.90;;;;;;5013061;28;20073;-83
2021/04/16 05:07:04;;;;;;;5.95;5.45;;;0.90;99.90;;;;;;5014011;28;20077;-83
2021/04/16 05:09:31;;;;;;;6.80;6.00;;;0.90;99.90;;;;;;5013655;28;20488;-83
2021/04/16 05:11:57;;;;;;;6.88;5.78;;;0.90;99.90;;;;;;5012536;28;20050;-83
2021/04/16 05:14:25;;;;;;;5.93;5.30;;;0.90;99.90;;;;;;5014036;28;20085;-82
2021/04/16 05:16:52;;;;;;;8.68;5.85;;;1.00;99.90;;;;;;5012417;28;20046;-83
2021/04/16 05:19:18;;;;;;;7.63;6.03;;;1.10;99.90;;;;;;5012598;28;20141;-83
2021/04/16 05:21:44;;;;;;;9.38;6.28;;;1.00;99.90;;;;;;5012584;28;20133;-83
2021/04/16 05:24:11;;;;;;;6.90;5.50;;;1.00;99.90;;;;;;5012523;28;20073;-83
2021/04/16 05:26:39;;;;;;;5.95;5.40;;;1.10;99.90;;;;;;5013662;28;20136;-83
2021/04/16 05:29:06;;;;;;;6.70;5.72;;;1.10;99.90;;;;;;5013281;28;20054;-83
2021/04/16 05:31:34;;;;;;;14.20;6.18;;;1.10;99.90;;;;;;5013412;28;20554;-82
2021/04/16 05:34:00;;;;;;;9.75;6.32;;;1.10;99.90;;;;;;5012427;28;20078;-83
2021/04/16 05:36:26;;;;;;;8.13;6.40;;;1.10;99.90;;;;;;5013534;28;20470;-83
2021/04/16 05:38:53;;;;;;;23.33;12.25;;;1.10;99.90;;;;;;5012310;28;20045;-83
2021/04/16 05:41:20;;;;;;;11.02;5.97;;;1.10;99.90;;;;;;5012059;28;20200;-83
2021/04/16 05:43:46;;;;;;;48.35;27.80;;;1.10;99.90;;;;;;5013386;28;20124;-83
2021/04/16 05:46:13;;;;;;;67.68;35.45;;;1.10;99.90;;;;;;5013257;28;20494;-83
2021/04/16 05:48:39;;;;;;;21.95;14.38;;;1.10;99.90;;;;;;5045136;28;20450;-83
2021/04/16 05:51:06;;;;;;;11.35;9.05;;;1.20;99.90;;;;;;5045322;28;20100;-83
2021/04/16 05:53:33;;;;;;;9.18;6.47;;;1.20;99.90;;;;;;5012412;28;20402;-83
2021/04/16 05:56:00;;;;;;;8.40;6.88;;;1.20;99.90;;;;;;5012994;28;20557;-83
2021/04/16 05:58:26;;;;;;;45.85;26.63;;;1.10;99.90;;;;;;5011981;28;20498;-83
2021/04/16 06:00:52;;;;;;;62.83;40.55;;;1.20;99.90;;;;;;5044870;28;20108;-83
2021/04/16 06:03:19;;;;;;;11.38;9.25;;;1.20;99.90;;;;;;5013076;28;20053;-83
2021/04/16 06:05:46;;;;;;;8.05;7.07;;;1.20;99.90;;;;;;5012372;28;20075;-83
2021/04/16 06:08:17;;;;;;;7.38;6.47;;;1.20;99.90;;;;;;5012920;28;20116;-83
2021/04/16 06:10:43;;;;;;;13.55;7.30;;;1.20;99.90;;;;;;5013164;28;20136;-82
2021/04/16 06:13:10;;;;;;;9.25;7.50;;;1.30;99.90;;;;;;5011689;28;20142;-83
2021/04/16 06:15:36;;;;;;;7.63;6.28;;;1.30;99.90;;;;;;5011982;28;20081;-83
2021/04/16 06:18:02;;;;;;;11.73;6.82;;;1.30;99.90;;;;;;5011778;28;20467;-83
2021/04/16 06:20:29;;;;;;;8.25;6.18;;;1.30;99.90;;;;;;5013477;28;20140;-83
2021/04/16 06:22:58;;;;;;;31.67;6.88;;;1.40;99.90;;;;;;5017086;28;20046;-83
2021/04/16 06:25:31;;;;;;;7.15;6.43;;;1.40;99.90;;;;;;5015665;28;20092;-83
2021/04/16 06:27:58;;;;;;;7.53;5.75;;;1.40;99.90;;;;;;5015685;28;20046;-83
2021/04/16 06:30:26;;;;;;;6.60;6.00;;;1.40;99.90;;;;;;5015815;28;20133;-83
2021/04/16 06:33:00;;;;;;;6.93;5.78;;;1.40;99.90;;;;;;5015746;28;20476;-84
2021/04/16 06:35:26;;;;;;;8.27;6.03;;;1.40;99.90;;;;;;5016793;28;20050;-83
2021/04/16 06:37:53;;;;;;;7.20;5.47;;;1.40;99.90;;;;;;5016557;28;20089;-83
2021/04/16 06:40:19;;;;;;;6.38;5.57;;;1.50;99.90;;;;;;5016806;28;20050;-83
2021/04/16 06:42:47;;;;;;;6.95;6.25;;;1.50;99.90;;;;;;5015123;28;20498;-83
2021/04/16 06:45:20;;;;;;;6.50;5.40;;;1.50;99.90;;;;;;5016619;28;20532;-83
2021/04/16 06:48:06;;;;;;;7.15;6.10;;;1.60;99.90;;;;;;5015408;28;20046;-83
2021/04/16 06:50:40;;;;;;;5.38;4.82;;;1.60;99.90;;;;;;5016525;28;20847;-83
2021/04/16 06:53:28;;;;;;;6.15;4.85;;;1.60;99.90;;;;;;5015408;28;20453;-84
2021/04/16 06:56:38;;;;;;;7.90;4.85;;;1.70;99.90;;;;;;5016796;28;20494;-83
2021/04/16 06:59:15;;;;;;;6.07;4.88;;;1.80;99.90;;;;;;5016286;28;20084;-83
2021/04/16 07:01:46;;;;;;;6.15;5.03;;;1.70;99.90;;;;;;5014878;28;20072;-84
2021/04/16 07:04:31;;;;;;;5.53;4.95;;;1.70;99.90;;;;;;5016171;28;20057;-83
2021/04/16 07:07:02;;;;;;;5.30;4.80;;;1.80;99.90;;;;;;5014977;28;20135;-83
2021/04/16 07:09:40;;;;;;;5.65;5.05;;;1.80;99.90;;;;;;5016259;28;20109;-83
2021/04/16 07:12:14;;;;;;;5.50;4.80;;;1.90;99.90;;;;;;5014953;28;20088;-83
2021/04/16 07:14:44;;;;;;;6.65;4.82;;;1.90;99.90;;;;;;5015134;28;20050;-83
2021/04/16 07:17:15;;;;;;;5.65;5.10;;;1.90;99.90;;;;;;5014771;28;20149;-84
2021/04/16 07:19:42;;;;;;;6.32;5.18;;;2.00;99.90;;;;;;5015868;28;20129;-84
2021/04/16 07:22:52;;;;;;;6.72;5.50;;;2.00;99.90;;;;;;5015472;28;20046;-83
2021/04/16 07:25:27;;;;;;;7.97;5.47;;;2.10;99.90;;;;;;5013692;28;20108;-84
2021/04/16 07:28:03;;;;;;;5.72;5.05;;;2.10;99.90;;;;;;5015337;28;20054;-84
2021/04/16 07:30:41;;;;;;;6.13;5.50;;;2.00;99.90;;;;;;5014827;28;20542;-84
2021/04/16 07:33:20;;;;;;;19.17;10.77;;;2.00;99.90;;;;;;5013173;28;20046;-84
2021/04/16 07:35:47;;;;;;;9.02;6.10;;;2.10;99.90;;;;;;5014326;28;20054;-84
2021/04/16 07:38:29;;;;;;;10.25;7.55;;;2.10;99.90;;;;;;5015060;28;20046;-84
2021/04/16 07:41:22;;;;;;;8.85;7.10;;;2.20;99.90;;;;;;5015519;28;20081;-84
2021/04/16 07:43:51;;;;;;;38.65;20.42;;;2.30;99.90;;;;;;5014400;28;20081;-84
2021/04/16 07:46:26;;;;;;;8.00;6.18;;;2.40;99.90;;;;;;5015162;28;20467;-84
2021/04/16 07:49:12;;;;;;;8.98;5.63;;;2.60;99.90;;;;;;5015063;28;20057;-83
2021/04/16 07:51:41;;;;;;;5.10;4.60;;;2.70;99.90;;;;;;5013939;28;20054;-83
2021/04/16 07:54:15;;;;;;;8.13;4.70;;;2.70;99.90;;;;;;5015186;28;20133;-84
2021/04/16 07:56:42;;;;;;;7.45;4.53;;;2.70;99.90;;;;;;5013696;28;20050;-84
2021/04/16 07:59:13;;;;;;;5.53;4.32;;;2.70;99.90;;;;;;5007193;28;20567;-84
2021/04/16 08:01:48;;;;;;;15.65;10.50;;;2.60;99.90;;;;;;5012698;28;20054;-83
2021/04/16 08:04:23;;;;;;;9.35;5.60;;;2.60;99.90;;;;;;5044749;28;20050;-83
2021/04/16 08:06:52;;;;;;;5.30;4.65;;;2.70;99.90;;;;;;5013412;28;20089;-84
2021/04/16 08:09:24;;;;;;;11.07;5.20;;;2.80;99.90;;;;;;5012935;28;20049;-84
2021/04/16 08:12:00;;;;;;;5.70;5.20;;;2.90;99.90;;;;;;5014278;28;20141;-84
2021/04/16 08:14:31;;;;;;;37.13;22.05;;;3.00;99.90;;;;;;5011657;28;20050;-84
2021/04/16 08:17:24;;;;;;;14.25;7.72;;;2.90;99.90;;;;;;5044511;28;20053;-84
2021/04/16 08:19:51;;;;;;;5.30;4.20;;;2.90;99.90;;;;;;5012568;28;20120;-83
2021/04/16 08:22:36;;;;;;;7.63;4.68;;;3.10;99.90;;;;;;5011386;28;20129;-84
2021/04/16 08:25:12;;;;;;;12.55;6.43;;;3.10;99.90;;;;;;5011586;28;20132;-83
2021/04/16 08:27:43;;;;;;;4.75;4.30;;;3.20;99.90;;;;;;5012804;28;20384;-84
2021/04/16 08:30:17;;;;;;;6.57;4.70;;;3.20;99.90;;;;;;5013478;28;20137;-83
2021/04/16 08:32:51;;;;;;;7.30;4.68;;;3.20;99.90;;;;;;5014659;28;20084;-83
2021/04/16 08:35:41;;;;;;;8.57;6.00;;;3.50;99.90;;;;;;5013729;28;20065;-84
2021/04/16 08:38:13;;;;;;;5.20;4.40;;;3.40;99.90;;;;;;5013395;28;20148;-84
2021/04/16 08:40:52;;;;;;;6.68;5.13;;;3.40;99.90;;;;;;5013505;28;20050;-84
2021/04/16 08:43:39;;;;;;;287.50;154.13;;;3.20;99.90;;;;;;5013989;28;20132;-83
2021/04/16 08:46:45;;;;;;;34.03;18.67;;;3.30;99.90;;;;;;5046082;28;20046;-83
2021/04/16 08:49:24;;;;;;;78.20;16.95;;;3.30;99.90;;;;;;4972734;28;20047;-83
2021/04/16 08:51:54;;;;;;;35.53;21.50;;;3.30;99.90;;;;;;5005848;28;20049;-84
2021/04/16 08:54:30;;;;;;;10.05;4.53;;;3.40;99.90;;;;;;5013934;28;20061;-83
2021/04/16 08:57:04;;;;;;;6.88;5.20;;;3.50;99.90;;;;;;5014043;28;20100;-83
2021/04/16 08:59:33;;;;;;;;;;;3.60;99.90;;;;;;5014252;28;20137;-82
2021/04/16 09:02:18;;;;;;;8.50;6.40;;;3.80;99.90;;;;;;5013646;28;20377;-83
2021/04/16 09:04:54;;;;;;;10.80;5.35;;;4.10;99.90;;;;;;5013919;28;20068;-83
2021/04/16 09:07:41;;;;;;;7.78;5.35;;;4.30;99.90;;;;;;5012420;28;20046;-83
2021/04/16 09:10:16;;;;;;;5.20;4.40;;;4.50;99.90;;;;;;5013429;28;20157;-83
2021/04/16 09:12:51;;;;;;;5.70;3.72;;;4.80;99.90;;;;;;5012566;28;20402;-83
2021/04/16 09:15:20;;;;;;;7.95;4.20;;;4.80;99.90;;;;;;5012483;28;20100;-83
2021/04/16 09:17:53;;;;;;;4.18;3.42;;;4.80;99.90;;;;;;5012491;28;20081;-83
2021/04/16 09:20:25;;;;;;;4.17;3.73;;;4.90;99.90;;;;;;5013256;28;20050;-82
2021/04/16 09:22:53;;;;;;;4.35;3.20;;;4.90;99.90;;;;;;5012181;28;20530;-83
2021/04/16 09:25:42;;;;;;;6.30;3.35;;;4.90;99.90;;;;;;5013495;28;20469;-83
2021/04/16 09:28:21;;;;;;;3.95;3.25;;;4.80;99.90;;;;;;5011999;28;20461;-83
2021/04/16 09:30:51;;;;;;;3.50;3.30;;;4.90;99.90;;;;;;5012170;28;20053;-83
2021/04/16 09:33:26;;;;;;;5.15;3.25;;;5.00;99.90;;;;;;5011984;28;20128;-83
2021/04/16 09:36:32;;;;;;;3.72;3.17;;;5.20;99.90;;;;;;5012345;28;20049;-83
2021/04/16 09:39:15;;;;;;;8.48;3.85;;;5.20;99.90;;;;;;5004014;28;20530;-83
2021/04/16 09:41:46;;;;;;;4.97;3.35;;;5.40;99.90;;;;;;5012088;28;20137;-83
2021/04/16 09:44:53;;;;;;;4.97;3.20;;;5.50;99.90;;;;;;5013057;28;20171;-83
2021/04/16 09:47:44;;;;;;;10.18;3.85;;;5.60;99.90;;;;;;5007274;28;20163;-83
2021/04/16 09:50:24;;;;;;;4.10;3.03;;;5.90;99.90;;;;;;5012173;28;20050;-81
2021/04/16 09:53:13;;;;;;;7.15;3.70;;;6.20;99.90;;;;;;5013229;28;20133;-83
2021/04/16 09:56:00;;;;;;;4.47;2.75;;;6.30;99.90;;;;;;5012155;28;20068;-83
2021/04/16 09:58:32;;;;;;;4.40;2.97;;;6.30;99.90;;;;;;5011876;28;20136;-82
2021/04/16 10:01:11;;;;;;;5.82;3.42;;;6.10;99.90;;;;;;5011802;28;20089;-83
2021/04/16 10:03:46;;;;;;;10.80;5.28;;;6.00;99.90;;;;;;5013532;28;20050;-83
2021/04/16 10:06:25;;;;;;;11.38;4.50;;;5.60;99.90;;;;;;5012817;28;20050;-83
2021/04/16 10:09:20;;;;;;;4.53;3.38;;;5.90;99.90;;;;;;5013139;28;20107;-83
2021/04/16 10:12:00;;;;;;;5.75;3.60;;;5.90;99.90;;;;;;5011958;28;20128;-83
2021/04/16 10:14:35;;;;;;;4.20;3.30;;;6.00;99.90;;;;;;5011847;28;20050;-83
2021/04/16 10:17:04;;;;;;;6.03;4.05;;;5.70;99.90;;;;;;5012822;28;20589;-82
2021/04/16 10:19:34;;;;;;;15.38;10.88;;;5.50;99.90;;;;;;5012904;28;20042;-83
2021/04/16 10:22:29;;;;;;;14.90;9.73;;;5.50;99.90;;;;;;5044356;28;20046;-83
2021/04/16 10:31:47;;;;;;;9.05;3.30;;;5.30;99.90;;;;;;5012649;28;20137;-83
2021/04/16 12:40:21;;;;;;;8.32;2.50;;;7.70;99.90;;;;;;5013919;28;20144;-83
2021/04/16 12:42:48;;;;;;;2.80;2.05;;;8.00;99.90;;;;;;5014021;28;20137;-82
2021/04/16 12:45:15;;;;;;;6.22;2.83;;;8.10;99.90;;;;;;5013004;28;20141;-83
2021/04/16 12:47:42;;;;;;;9.10;2.92;;;8.30;99.90;;;;;;5012716;28;20137;-83
2021/04/16 12:50:11;;;;;;;3.15;2.10;;;8.30;99.90;;;;;;5012781;28;20542;-82
2021/04/16 12:52:37;;;;;;;5.63;5.13;;;8.10;99.90;;;;;;5013643;28;20096;-82
2021/04/16 12:55:04;;;;;;;10.88;5.32;;;8.30;99.90;;;;;;5012329;28;20506;-83
2021/04/16 12:57:43;;;;;;;4.80;2.80;;;8.40;99.90;;;;;;5012827;28;20465;-83
2021/04/16 13:00:17;;;;;;;7.85;2.58;;;8.30;99.90;;;;;;5013459;28;20085;-82
2021/04/16 13:02:44;;;;;;;10.55;2.90;;;8.50;99.90;;;;;;5012676;28;20081;-82
2021/04/16 13:05:13;;;;;;;2.53;2.33;;;8.40;99.90;;;;;;5012744;28;20050;-82
2021/04/16 13:07:39;;;;;;;4.53;2.58;;;8.20;99.90;;;;;;5013629;28;20085;-82
2021/04/16 13:10:09;;;;;;;3.30;2.80;;;8.50;99.90;;;;;;5012263;28;20053;-83
2021/04/16 13:12:36;;;;;;;5.13;2.50;;;9.10;99.90;;;;;;5013472;28;20142;-82
2021/04/16 13:15:04;;;;;;;14.43;3.40;;;9.00;99.90;;;;;;5013909;28;20078;-83
2021/04/16 13:17:30;;;;;;;5.60;2.33;;;8.90;99.90;;;;;;5013805;28;20132;-83
2021/04/16 13:19:57;;;;;;;2.45;2.00;;;8.50;99.90;;;;;;5012497;28;20077;-83
2021/04/16 13:22:27;;;;;;;4.88;2.60;;;8.40;99.90;;;;;;5013535;28;20137;-83
2021/04/16 13:24:54;;;;;;;2.20;2.10;;;8.10;99.90;;;;;;5012452;28;20497;-83
2021/04/16 13:27:24;;;;;;;3.53;2.45;;;8.00;99.90;;;;;;5012592;28;20081;-83
2021/04/16 13:29:51;;;;;;;7.90;3.17;;;8.10;99.90;;;;;;5012723;28;20056;-82
2021/04/16 13:32:21;;;;;;;6.20;2.58;;;8.30;99.90;;;;;;5012067;28;20066;-82
2021/04/16 13:34:47;;;;;;;11.82;2.92;;;8.30;99.90;;;;;;5013587;28;20157;-83
2021/04/16 13:37:18;;;;;;;3.58;2.33;;;8.20;99.90;;;;;;5012279;28;20395;-83
2021/04/16 13:39:46;;;;;;;6.60;2.53;;;8.60;99.90;;;;;;5012468;28;20053;-84
2021/04/16 13:42:13;;;;;;;4.78;2.28;;;8.50;99.90;;;;;;5012141;28;20045;-83
2021/04/16 13:44:40;;;;;;;3.15;2.30;;;8.40;99.90;;;;;;5012248;28;20482;-83
2021/04/16 13:47:08;;;;;;;8.80;3.25;;;8.40;99.90;;;;;;5013290;28;20556;-84
2021/04/16 13:49:40;;;;;;;6.60;2.88;;;8.10;99.90;;;;;;5012211;28;20465;-83
2021/04/16 13:52:07;;;;;;;8.70;2.58;;;8.10;99.90;;;;;;5013114;28;20497;-83
2021/04/16 13:54:35;;;;;;;3.05;2.20;;;8.30;99.90;;;;;;5012127;28;20060;-83
2021/04/16 13:57:04;;;;;;;3.30;2.38;;;8.30;99.90;;;;;;5011835;28;20065;-83
2021/04/16 13:59:31;;;;;;;3.88;2.63;;;8.40;99.90;;;;;;5011425;28;20549;-83
2021/04/16 14:01:58;;;;;;;2.38;2.17;;;8.40;99.90;;;;;;5012795;28;20077;-83
2021/04/16 14:04:36;;;;;;;6.32;2.10;;;8.40;99.90;;;;;;5011828;28;20046;-83
2021/04/16 14:07:06;;;;;;;3.50;2.60;;;9.10;99.90;;;;;;5012953;28;20512;-83
2021/04/16 14:09:34;;;;;;;11.48;3.25;;;9.10;99.90;;;;;;5011593;28;20046;-83
2021/04/16 14:12:00;;;;;;;6.88;2.80;;;9.00;99.90;;;;;;5012539;28;20046;-83
2021/04/16 14:14:29;;;;;;;3.38;2.83;;;9.00;99.90;;;;;;5012730;28;20081;-83
2021/04/16 14:17:03;;;;;;;4.80;2.80;;;8.90;99.90;;;;;;5012898;28;20217;-83
2021/04/16 14:19:39;;;;;;;3.33;2.25;;;8.80;99.90;;;;;;5011743;28;20120;-83
2021/04/16 14:22:09;;;;;;;5.32;2.25;;;8.90;99.90;;;;;;5012520;28;20104;-83
2021/04/16 14:24:35;;;;;;;4.40;2.30;;;8.60;99.90;;;;;;5012762;28;20153;-83
2021/04/16 14:27:01;;;;;;;5.07;2.53;;;8.70;99.90;;;;;;5012487;28;20080;-83
2021/04/16 14:29:28;;;;;;;3.15;2.30;;;8.80;99.90;;;;;;5012391;28;20509;-84
2021/04/16 14:31:54;;;;;;;2.42;2.05;;;8.90;99.90;;;;;;5011292;28;20127;-83
2021/04/16 14:34:25;;;;;;;6.72;3.05;;;8.70;99.90;;;;;;5012598;28;20133;-83
2021/04/16 14:36:51;;;;;;;15.52;10.43;;;8.70;99.90;;;;;;5012513;28;20136;-83
2021/04/16 14:39:18;;;;;;;7.00;4.00;;;8.40;99.90;;;;;;5012459;28;20073;-83
2021/04/16 14:41:44;;;;;;;3.35;2.30;;;8.40;99.90;;;;;;5013378;28;20085;-83
2021/04/16 14:44:16;;;;;;;6.55;2.78;;;8.10;99.90;;;;;;5016382;28;20058;-83
2021/04/16 14:46:45;;;;;;;3.17;2.03;;;8.20;99.90;;;;;;5015372;28;20077;-83
2021/04/16 14:49:13;;;;;;;3.30;3.00;;;8.20;99.90;;;;;;5016194;28;20104;-83
2021/04/16 14:51:41;;;;;;;2.42;2.22;;;8.50;99.90;;;;;;5015000;28;20537;-83
2021/04/16 14:54:20;;;;;;;2.78;2.58;;;8.70;99.90;;;;;;5016072;28;20085;-83
2021/04/16 14:56:46;;;;;;;4.05;2.65;;;8.50;99.90;;;;;;5015130;28;20050;-83
2021/04/16 14:59:24;;;;;;;3.42;2.45;;;8.50;99.90;;;;;;5016336;28;20395;-83
2021/04/16 15:01:51;;;;;;;4.63;3.20;;;8.60;99.90;;;;;;5015009;28;20136;-83
2021/04/16 15:04:20;;;;;;;3.13;2.20;;;8.60;99.90;;;;;;5014979;28;20061;-83
2021/04/16 15:06:51;;;;;;;4.15;2.20;;;8.60;99.90;;;;;;5015216;28;20132;-83
2021/04/16 15:09:18;;;;;;;4.85;2.30;;;8.60;99.90;;;;;;5015061;28;20161;-83
2021/04/16 15:11:47;;;;;;;2.72;2.17;;;8.90;99.90;;;;;;5015006;28;20042;-83
2021/04/16 15:14:31;;;;;;;3.30;2.10;;;9.30;99.90;;;;;;5014856;28;20137;-83
2021/04/16 15:16:58;;;;;;;4.65;2.67;;;9.10;99.90;;;;;;5014958;28;20050;-83
2021/04/16 15:19:35;;;;;;;5.53;2.72;;;9.30;99.90;;;;;;5015133;28;20052;-83
2021/04/16 15:22:10;;;;;;;3.95;2.47;;;9.00;99.90;;;;;;5014905;28;20450;-84
2021/04/16 15:24:39;;;;;;;2.63;2.30;;;8.70;99.90;;;;;;5015130;28;20049;-83
2021/04/16 15:27:06;;;;;;;6.50;3.40;;;8.50;99.90;;;;;;5014384;28;20149;-83